sensor_id;sensor_type;location;lat;lon;timestamp;pressure;altitude;pressure_sealevel;temperature;humidity
804;BME280;25687;49.976;8.240;2022-09-09T00:00:11;99581.41;;;15.17;100.00
804;BME280;25687;49.976;8.240;2022-09-09T00:02:37;99573.56;;;15.28;100.00
804;BME280;25687;49.976;8.240;2022-09-09T00:07:41;99572.00;;;15.16;100.00
804;BME280;25687;49.976;8.240;2022-09-09T00:19:08;99569.97;;;14.98;100.00
804;BME280;25687;49.976;8.240;2022-09-09T00:21:13;99564.53;;;15.01;100.00
804;BME280;25687;49.976;8.240;2022-09-09T00:23:45;99574.66;;;15.05;100.00
804;BME280;25687;49.976;8.240;2022-09-09T00:31:34;99563.94;;;14.98;100.00
804;BME280;25687;49.976;8.240;2022-09-09T00:34:15;99565.22;;;14.82;100.00
804;BME280;25687;49.976;8.240;2022-09-09T00:36:43;99566.28;;;14.80;100.00
804;BME280;25687;49.976;8.240;2022-09-09T00:39:33;99565.63;;;14.66;100.00
804;BME280;25687;49.976;8.240;2022-09-09T00:42:41;99567.72;;;14.61;100.00
804;BME280;25687;49.976;8.240;2022-09-09T00:47:47;99563.22;;;14.63;100.00
804;BME280;25687;49.976;8.240;2022-09-09T00:56:14;99564.97;;;14.42;100.00
804;BME280;25687;49.976;8.240;2022-09-09T00:58:43;99567.81;;;14.27;100.00
804;BME280;25687;49.976;8.240;2022-09-09T01:01:13;99571.22;;;14.16;100.00
804;BME280;25687;49.976;8.240;2022-09-09T01:03:55;99572.44;;;14.01;100.00
804;BME280;25687;49.976;8.240;2022-09-09T01:06:35;99571.25;;;14.05;100.00
804;BME280;25687;49.976;8.240;2022-09-09T01:09:32;99571.03;;;13.97;100.00
804;BME280;25687;49.976;8.240;2022-09-09T01:12:15;99573.72;;;14.07;100.00
804;BME280;25687;49.976;8.240;2022-09-09T01:14:47;99564.53;;;14.14;100.00
804;BME280;25687;49.976;8.240;2022-09-09T01:17:32;99556.44;;;14.07;100.00
804;BME280;25687;49.976;8.240;2022-09-09T01:20:08;99551.38;;;14.17;100.00
804;BME280;25687;49.976;8.240;2022-09-09T01:28:16;99540.41;;;14.25;100.00
804;BME280;25687;49.976;8.240;2022-09-09T01:30:43;99542.53;;;14.19;100.00
804;BME280;25687;49.976;8.240;2022-09-09T01:33:15;99555.03;;;14.14;100.00
804;BME280;25687;49.976;8.240;2022-09-09T01:36:18;99550.19;;;14.10;100.00
804;BME280;25687;49.976;8.240;2022-09-09T01:38:35;99552.31;;;14.16;100.00
804;BME280;25687;49.976;8.240;2022-09-09T01:41:02;99555.25;;;14.11;100.00
804;BME280;25687;49.976;8.240;2022-09-09T01:43:27;99561.59;;;14.07;100.00
804;BME280;25687;49.976;8.240;2022-09-09T01:45:55;99563.47;;;14.16;100.00
804;BME280;25687;49.976;8.240;2022-09-09T01:48:23;99561.94;;;14.14;100.00
804;BME280;25687;49.976;8.240;2022-09-09T01:50:48;99563.09;;;14.21;100.00
804;BME280;25687;49.976;8.240;2022-09-09T01:53:15;99559.50;;;14.01;100.00
804;BME280;25687;49.976;8.240;2022-09-09T01:56:20;99555.38;;;14.10;100.00
804;BME280;25687;49.976;8.240;2022-09-09T02:04:48;99563.47;;;14.05;100.00
804;BME280;25687;49.976;8.240;2022-09-09T02:10:09;99566.44;;;13.89;100.00
804;BME280;25687;49.976;8.240;2022-09-09T02:12:39;99567.03;;;13.70;100.00
804;BME280;25687;49.976;8.240;2022-09-09T02:15:30;99569.72;;;13.80;100.00
804;BME280;25687;49.976;8.240;2022-09-09T02:17:58;99574.44;;;13.86;100.00
804;BME280;25687;49.976;8.240;2022-09-09T02:20:24;99572.66;;;13.86;100.00
804;BME280;25687;49.976;8.240;2022-09-09T02:22:52;99568.78;;;13.81;100.00
804;BME280;25687;49.976;8.240;2022-09-09T02:25:21;99565.63;;;13.77;100.00
804;BME280;25687;49.976;8.240;2022-09-09T02:27:49;99564.91;;;13.75;100.00
804;BME280;25687;49.976;8.240;2022-09-09T02:30:15;99566.44;;;13.66;100.00
804;BME280;25687;49.976;8.240;2022-09-09T02:32:42;99565.50;;;13.56;100.00
804;BME280;25687;49.976;8.240;2022-09-09T02:35:12;99575.53;;;13.36;100.00
804;BME280;25687;49.976;8.240;2022-09-09T02:37:41;99583.00;;;13.28;100.00
804;BME280;25687;49.976;8.240;2022-09-09T02:40:09;99575.72;;;13.22;100.00
804;BME280;25687;49.976;8.240;2022-09-09T02:42:43;99577.50;;;13.21;100.00
804;BME280;25687;49.976;8.240;2022-09-09T02:45:11;99572.44;;;13.20;100.00
804;BME280;25687;49.976;8.240;2022-09-09T02:47:47;99579.75;;;13.26;100.00
804;BME280;25687;49.976;8.240;2022-09-09T02:50:23;99569.16;;;13.29;100.00
804;BME280;25687;49.976;8.240;2022-09-09T02:53:11;99560.59;;;13.29;100.00
804;BME280;25687;49.976;8.240;2022-09-09T02:56:06;99562.44;;;13.15;100.00
804;BME280;25687;49.976;8.240;2022-09-09T02:58:34;99565.47;;;13.09;100.00
804;BME280;25687;49.976;8.240;2022-09-09T03:01:01;99561.50;;;13.05;100.00
804;BME280;25687;49.976;8.240;2022-09-09T03:03:28;99570.06;;;13.05;100.00
804;BME280;25687;49.976;8.240;2022-09-09T03:05:54;99563.03;;;13.07;100.00
804;BME280;25687;49.976;8.240;2022-09-09T03:08:19;99560.31;;;13.09;100.00
804;BME280;25687;49.976;8.240;2022-09-09T03:10:44;99559.06;;;13.15;100.00
804;BME280;25687;49.976;8.240;2022-09-09T03:13:10;99565.16;;;13.14;100.00
804;BME280;25687;49.976;8.240;2022-09-09T03:15:36;99563.66;;;13.22;100.00
804;BME280;25687;49.976;8.240;2022-09-09T03:18:02;99561.19;;;13.21;100.00
804;BME280;25687;49.976;8.240;2022-09-09T03:20:29;99568.13;;;13.32;100.00
804;BME280;25687;49.976;8.240;2022-09-09T03:22:56;99569.13;;;13.42;100.00
804;BME280;25687;49.976;8.240;2022-09-09T03:25:22;99574.28;;;13.42;100.00
804;BME280;25687;49.976;8.240;2022-09-09T03:27:51;99571.91;;;13.39;100.00
804;BME280;25687;49.976;8.240;2022-09-09T03:30:20;99576.88;;;13.42;100.00
804;BME280;25687;49.976;8.240;2022-09-09T03:32:45;99578.03;;;13.49;100.00
804;BME280;25687;49.976;8.240;2022-09-09T03:35:10;99579.47;;;13.53;100.00
804;BME280;25687;49.976;8.240;2022-09-09T03:37:35;99579.94;;;13.47;100.00
804;BME280;25687;49.976;8.240;2022-09-09T03:40:01;99576.41;;;13.48;100.00
804;BME280;25687;49.976;8.240;2022-09-09T03:42:26;99573.88;;;13.35;100.00
804;BME280;25687;49.976;8.240;2022-09-09T03:44:52;99582.38;;;13.37;100.00
804;BME280;25687;49.976;8.240;2022-09-09T03:47:19;99581.03;;;13.32;100.00
804;BME280;25687;49.976;8.240;2022-09-09T03:49:45;99574.47;;;13.28;100.00
804;BME280;25687;49.976;8.240;2022-09-09T03:52:11;99574.94;;;13.33;100.00
804;BME280;25687;49.976;8.240;2022-09-09T03:54:37;99586.66;;;13.26;100.00
804;BME280;25687;49.976;8.240;2022-09-09T03:57:03;99579.25;;;13.21;100.00
804;BME280;25687;49.976;8.240;2022-09-09T03:59:29;99575.66;;;13.35;100.00
804;BME280;25687;49.976;8.240;2022-09-09T04:01:55;99565.94;;;13.38;100.00
804;BME280;25687;49.976;8.240;2022-09-09T04:04:22;99559.00;;;13.50;100.00
804;BME280;25687;49.976;8.240;2022-09-09T04:06:47;99553.72;;;13.52;100.00
804;BME280;25687;49.976;8.240;2022-09-09T04:09:14;99557.16;;;13.64;100.00
804;BME280;25687;49.976;8.240;2022-09-09T04:11:39;99561.13;;;13.68;100.00
804;BME280;25687;49.976;8.240;2022-09-09T04:14:04;99550.94;;;13.66;100.00
804;BME280;25687;49.976;8.240;2022-09-09T04:16:31;99549.84;;;13.80;100.00
804;BME280;25687;49.976;8.240;2022-09-09T04:18:57;99546.59;;;13.78;100.00
804;BME280;25687;49.976;8.240;2022-09-09T04:21:23;99554.00;;;13.94;100.00
804;BME280;25687;49.976;8.240;2022-09-09T04:23:48;99549.75;;;13.93;100.00
804;BME280;25687;49.976;8.240;2022-09-09T04:26:14;99564.69;;;13.90;100.00
804;BME280;25687;49.976;8.240;2022-09-09T04:28:39;99557.84;;;13.88;100.00
804;BME280;25687;49.976;8.240;2022-09-09T04:31:09;99552.09;;;13.85;100.00
804;BME280;25687;49.976;8.240;2022-09-09T04:33:36;99558.69;;;13.78;100.00
804;BME280;25687;49.976;8.240;2022-09-09T04:36:02;99548.25;;;13.79;100.00
804;BME280;25687;49.976;8.240;2022-09-09T04:38:27;99559.25;;;13.81;100.00
804;BME280;25687;49.976;8.240;2022-09-09T04:40:52;99564.22;;;13.73;100.00
804;BME280;25687;49.976;8.240;2022-09-09T04:43:19;99564.56;;;13.80;100.00
804;BME280;25687;49.976;8.240;2022-09-09T04:45:47;99565.03;;;13.74;100.00
804;BME280;25687;49.976;8.240;2022-09-09T04:48:13;99573.97;;;13.81;100.00
804;BME280;25687;49.976;8.240;2022-09-09T04:50:38;99577.25;;;13.83;100.00
804;BME280;25687;49.976;8.240;2022-09-09T04:53:04;99572.06;;;13.83;100.00
804;BME280;25687;49.976;8.240;2022-09-09T04:55:30;99580.31;;;13.88;100.00
804;BME280;25687;49.976;8.240;2022-09-09T04:57:56;99567.25;;;13.90;100.00
804;BME280;25687;49.976;8.240;2022-09-09T05:00:22;99579.47;;;13.99;100.00
804;BME280;25687;49.976;8.240;2022-09-09T05:02:48;99578.31;;;14.03;100.00
804;BME280;25687;49.976;8.240;2022-09-09T05:05:13;99579.00;;;14.05;100.00
804;BME280;25687;49.976;8.240;2022-09-09T05:07:38;99573.94;;;14.03;100.00
804;BME280;25687;49.976;8.240;2022-09-09T05:10:04;99582.06;;;14.22;100.00
804;BME280;25687;49.976;8.240;2022-09-09T05:12:31;99582.25;;;14.30;100.00
804;BME280;25687;49.976;8.240;2022-09-09T05:14:56;99579.31;;;14.34;100.00
804;BME280;25687;49.976;8.240;2022-09-09T05:17:22;99583.31;;;14.27;100.00
804;BME280;25687;49.976;8.240;2022-09-09T05:19:47;99587.88;;;14.35;100.00
804;BME280;25687;49.976;8.240;2022-09-09T05:22:13;99590.59;;;14.33;100.00
804;BME280;25687;49.976;8.240;2022-09-09T05:24:38;99593.09;;;14.24;100.00
804;BME280;25687;49.976;8.240;2022-09-09T05:27:04;99593.56;;;14.17;100.00
804;BME280;25687;49.976;8.240;2022-09-09T05:29:30;99591.22;;;14.14;100.00
804;BME280;25687;49.976;8.240;2022-09-09T05:31:58;99588.66;;;14.14;100.00
804;BME280;25687;49.976;8.240;2022-09-09T05:34:23;99596.41;;;14.14;100.00
804;BME280;25687;49.976;8.240;2022-09-09T05:36:49;99595.91;;;14.32;100.00
804;BME280;25687;49.976;8.240;2022-09-09T05:39:14;99593.22;;;14.22;100.00
804;BME280;25687;49.976;8.240;2022-09-09T05:41:39;99590.03;;;14.18;100.00
804;BME280;25687;49.976;8.240;2022-09-09T05:44:05;99593.81;;;14.14;100.00
804;BME280;25687;49.976;8.240;2022-09-09T05:46:31;99592.72;;;14.28;100.00
804;BME280;25687;49.976;8.240;2022-09-09T05:48:56;99599.44;;;14.31;100.00
804;BME280;25687;49.976;8.240;2022-09-09T05:51:25;99603.47;;;14.56;100.00
804;BME280;25687;49.976;8.240;2022-09-09T05:53:51;99599.38;;;14.76;100.00
804;BME280;25687;49.976;8.240;2022-09-09T05:56:19;99599.47;;;15.07;100.00
804;BME280;25687;49.976;8.240;2022-09-09T05:58:45;99607.50;;;15.25;100.00
804;BME280;25687;49.976;8.240;2022-09-09T06:01:17;99609.00;;;15.07;100.00
804;BME280;25687;49.976;8.240;2022-09-09T06:03:44;99617.94;;;15.35;100.00
804;BME280;25687;49.976;8.240;2022-09-09T06:06:16;99617.91;;;15.56;100.00
804;BME280;25687;49.976;8.240;2022-09-09T06:08:43;99606.00;;;15.96;100.00
804;BME280;25687;49.976;8.240;2022-09-09T06:11:10;99613.81;;;16.06;100.00
804;BME280;25687;49.976;8.240;2022-09-09T06:13:36;99607.78;;;16.36;100.00
804;BME280;25687;49.976;8.240;2022-09-09T06:16:04;99608.75;;;16.55;100.00
804;BME280;25687;49.976;8.240;2022-09-09T06:18:30;99608.91;;;16.73;100.00
804;BME280;25687;49.976;8.240;2022-09-09T06:20:57;99605.25;;;17.05;100.00
804;BME280;25687;49.976;8.240;2022-09-09T06:23:23;99607.94;;;17.33;100.00
804;BME280;25687;49.976;8.240;2022-09-09T06:25:48;99612.56;;;17.49;100.00
804;BME280;25687;49.976;8.240;2022-09-09T06:28:14;99613.09;;;17.62;100.00
804;BME280;25687;49.976;8.240;2022-09-09T06:30:40;99608.16;;;17.69;100.00
804;BME280;25687;49.976;8.240;2022-09-09T06:33:06;99612.44;;;17.60;100.00
804;BME280;25687;49.976;8.240;2022-09-09T06:35:31;99614.25;;;17.20;100.00
804;BME280;25687;49.976;8.240;2022-09-09T06:37:56;99615.34;;;17.37;100.00
804;BME280;25687;49.976;8.240;2022-09-09T06:40:23;99614.94;;;17.32;100.00
804;BME280;25687;49.976;8.240;2022-09-09T06:42:49;99611.38;;;17.33;100.00
804;BME280;25687;49.976;8.240;2022-09-09T06:45:14;99608.13;;;17.12;100.00
804;BME280;25687;49.976;8.240;2022-09-09T06:47:39;99605.22;;;16.85;100.00
804;BME280;25687;49.976;8.240;2022-09-09T06:50:06;99610.19;;;16.98;100.00
804;BME280;25687;49.976;8.240;2022-09-09T06:52:32;99602.50;;;17.16;100.00
804;BME280;25687;49.976;8.240;2022-09-09T06:54:58;99610.69;;;17.21;100.00
804;BME280;25687;49.976;8.240;2022-09-09T06:57:24;99616.16;;;17.38;100.00
804;BME280;25687;49.976;8.240;2022-09-09T06:59:49;99616.16;;;17.38;100.00
804;BME280;25687;49.976;8.240;2022-09-09T07:02:14;99613.50;;;17.57;100.00
804;BME280;25687;49.976;8.240;2022-09-09T07:04:40;99607.44;;;17.77;100.00
804;BME280;25687;49.976;8.240;2022-09-09T07:07:05;99607.13;;;17.42;100.00
804;BME280;25687;49.976;8.240;2022-09-09T07:09:30;99603.84;;;17.30;100.00
804;BME280;25687;49.976;8.240;2022-09-09T07:11:56;99610.81;;;17.49;100.00
804;BME280;25687;49.976;8.240;2022-09-09T07:14:24;99610.00;;;19.06;100.00
804;BME280;25687;49.976;8.240;2022-09-09T07:16:49;99600.34;;;21.37;83.93
804;BME280;25687;49.976;8.240;2022-09-09T07:19:15;99608.03;;;22.35;75.27
804;BME280;25687;49.976;8.240;2022-09-09T07:21:40;99612.97;;;22.61;69.67
804;BME280;25687;49.976;8.240;2022-09-09T07:24:06;99620.22;;;21.80;74.10
804;BME280;25687;49.976;8.240;2022-09-09T07:26:33;99619.97;;;22.06;74.37
804;BME280;25687;49.976;8.240;2022-09-09T07:28:58;99611.56;;;22.97;68.70
804;BME280;25687;49.976;8.240;2022-09-09T07:31:30;99618.75;;;23.56;64.28
804;BME280;25687;49.976;8.240;2022-09-09T07:33:56;99632.34;;;23.90;60.75
804;BME280;25687;49.976;8.240;2022-09-09T07:36:24;99625.78;;;24.67;57.39
804;BME280;25687;49.976;8.240;2022-09-09T07:38:55;99633.44;;;24.47;57.91
804;BME280;25687;49.976;8.240;2022-09-09T07:41:27;99633.97;;;24.57;56.80
804;BME280;25687;49.976;8.240;2022-09-09T07:43:53;99640.38;;;24.55;56.27
804;BME280;25687;49.976;8.240;2022-09-09T07:46:20;99634.81;;;25.93;49.77
804;BME280;25687;49.976;8.240;2022-09-09T07:48:55;99636.66;;;25.99;49.46
804;BME280;25687;49.976;8.240;2022-09-09T07:51:30;99631.09;;;26.22;47.63
804;BME280;25687;49.976;8.240;2022-09-09T07:53:58;99635.59;;;26.35;47.73
804;BME280;25687;49.976;8.240;2022-09-09T07:56:25;99651.28;;;25.17;51.35
804;BME280;25687;49.976;8.240;2022-09-09T07:58:52;99646.06;;;26.15;48.48
804;BME280;25687;49.976;8.240;2022-09-09T08:01:22;99644.00;;;24.90;52.67
804;BME280;25687;49.976;8.240;2022-09-09T08:03:56;99652.84;;;24.83;53.41
804;BME280;25687;49.976;8.240;2022-09-09T08:06:24;99646.06;;;23.09;59.63
804;BME280;25687;49.976;8.240;2022-09-09T08:08:51;99641.56;;;21.19;70.68
804;BME280;25687;49.976;8.240;2022-09-09T08:11:16;99645.09;;;21.75;71.53
804;BME280;25687;49.976;8.240;2022-09-09T08:13:43;99648.38;;;21.77;70.64
804;BME280;25687;49.976;8.240;2022-09-09T08:16:15;99649.72;;;20.83;75.51
804;BME280;25687;49.976;8.240;2022-09-09T08:18:40;99650.22;;;20.94;76.87
804;BME280;25687;49.976;8.240;2022-09-09T08:21:11;99644.91;;;20.70;78.03
804;BME280;25687;49.976;8.240;2022-09-09T08:23:39;99645.38;;;20.57;78.69
804;BME280;25687;49.976;8.240;2022-09-09T08:26:09;99662.66;;;20.50;79.83
804;BME280;25687;49.976;8.240;2022-09-09T08:28:35;99664.19;;;20.60;79.37
804;BME280;25687;49.976;8.240;2022-09-09T08:33:33;99648.22;;;20.80;78.05
804;BME280;25687;49.976;8.240;2022-09-09T08:35:58;99650.19;;;21.11;76.23
804;BME280;25687;49.976;8.240;2022-09-09T08:38:24;99654.63;;;21.02;76.11
804;BME280;25687;49.976;8.240;2022-09-09T08:40:52;99661.78;;;20.84;77.06
804;BME280;25687;49.976;8.240;2022-09-09T08:43:25;99656.22;;;20.78;78.15
804;BME280;25687;49.976;8.240;2022-09-09T08:46:02;99660.25;;;20.13;79.58
804;BME280;25687;49.976;8.240;2022-09-09T08:51:26;99659.19;;;20.92;74.61
804;BME280;25687;49.976;8.240;2022-09-09T08:53:53;99654.44;;;21.78;69.81
804;BME280;25687;49.976;8.240;2022-09-09T08:56:24;99650.91;;;22.97;61.95
804;BME280;25687;49.976;8.240;2022-09-09T08:58:52;99654.44;;;23.65;55.95
804;BME280;25687;49.976;8.240;2022-09-09T09:01:41;99659.31;;;26.29;46.67
804;BME280;25687;49.976;8.240;2022-09-09T09:07:33;99661.91;;;27.51;40.50
804;BME280;25687;49.976;8.240;2022-09-09T09:10:17;99657.84;;;26.88;41.04
804;BME280;25687;49.976;8.240;2022-09-09T09:12:44;99652.97;;;26.16;43.45
804;BME280;25687;49.976;8.240;2022-09-09T09:15:17;99654.69;;;27.92;40.66
804;BME280;25687;49.976;8.240;2022-09-09T09:17:43;99646.69;;;27.33;40.53
804;BME280;25687;49.976;8.240;2022-09-09T09:20:15;99649.75;;;28.02;39.39
804;BME280;25687;49.976;8.240;2022-09-09T09:22:52;99660.84;;;25.74;43.30
804;BME280;25687;49.976;8.240;2022-09-09T09:25:22;99654.03;;;24.80;47.20
804;BME280;25687;49.976;8.240;2022-09-09T09:28:02;99657.16;;;24.90;47.05
804;BME280;25687;49.976;8.240;2022-09-09T09:30:37;99654.16;;;24.57;48.88
804;BME280;25687;49.976;8.240;2022-09-09T09:34:05;99657.59;;;23.76;50.93
804;BME280;25687;49.976;8.240;2022-09-09T09:36:11;99655.34;;;24.54;50.58
804;BME280;25687;49.976;8.240;2022-09-09T09:38:57;99634.25;;;26.66;44.53
804;BME280;25687;49.976;8.240;2022-09-09T09:43:56;99641.19;;;24.70;45.21
804;BME280;25687;49.976;8.240;2022-09-09T09:46:23;99653.75;;;24.38;46.23
804;BME280;25687;49.976;8.240;2022-09-09T09:49:04;99648.38;;;23.80;49.21
804;BME280;25687;49.976;8.240;2022-09-09T09:51:31;99640.75;;;24.30;47.58
804;BME280;25687;49.976;8.240;2022-09-09T09:56:38;99651.66;;;27.88;39.04
804;BME280;25687;49.976;8.240;2022-09-09T09:59:04;99648.72;;;28.23;36.48
804;BME280;25687;49.976;8.240;2022-09-09T10:01:32;99647.50;;;26.93;38.51
804;BME280;25687;49.976;8.240;2022-09-09T10:04:12;99642.31;;;25.33;42.26
804;BME280;25687;49.976;8.240;2022-09-09T10:06:40;99646.66;;;25.19;44.49
804;BME280;25687;49.976;8.240;2022-09-09T10:09:23;99647.97;;;25.86;43.16
804;BME280;25687;49.976;8.240;2022-09-09T10:12:22;99645.75;;;25.97;41.38
804;BME280;25687;49.976;8.240;2022-09-09T10:20:21;99644.50;;;25.51;41.47
804;BME280;25687;49.976;8.240;2022-09-09T10:23:06;99644.22;;;26.98;38.38
804;BME280;25687;49.976;8.240;2022-09-09T10:26:11;99641.75;;;29.43;33.42
804;BME280;25687;49.976;8.240;2022-09-09T10:29:24;99641.38;;;28.57;34.97
804;BME280;25687;49.976;8.240;2022-09-09T10:34:33;99626.19;;;26.95;35.89
804;BME280;25687;49.976;8.240;2022-09-09T10:37:14;99633.50;;;25.19;40.98
804;BME280;25687;49.976;8.240;2022-09-09T10:39:42;99635.50;;;24.00;44.59
804;BME280;25687;49.976;8.240;2022-09-09T10:42:14;99632.25;;;22.92;47.58
804;BME280;25687;49.976;8.240;2022-09-09T10:47:44;99630.44;;;21.98;50.70
804;BME280;25687;49.976;8.240;2022-09-09T10:56:20;99622.38;;;22.47;47.66
804;BME280;25687;49.976;8.240;2022-09-09T10:59:00;99620.13;;;22.44;48.64
804;BME280;25687;49.976;8.240;2022-09-09T11:01:32;99614.09;;;22.67;49.13
804;BME280;25687;49.976;8.240;2022-09-09T11:04:55;99619.38;;;22.82;49.18
804;BME280;25687;49.976;8.240;2022-09-09T11:07:06;99617.59;;;22.59;48.32
804;BME280;25687;49.976;8.240;2022-09-09T11:09:38;99614.91;;;22.44;49.35
804;BME280;25687;49.976;8.240;2022-09-09T11:12:13;99620.50;;;22.64;50.50
804;BME280;25687;49.976;8.240;2022-09-09T11:14:48;99611.75;;;22.95;49.13
804;BME280;25687;49.976;8.240;2022-09-09T11:17:20;99614.59;;;23.09;47.79
804;BME280;25687;49.976;8.240;2022-09-09T11:19:47;99630.84;;;23.27;47.83
804;BME280;25687;49.976;8.240;2022-09-09T11:22:51;99617.38;;;23.30;46.47
804;BME280;25687;49.976;8.240;2022-09-09T11:28:06;99608.47;;;22.93;47.99
804;BME280;25687;49.976;8.240;2022-09-09T11:31:00;99602.00;;;22.81;50.12
804;BME280;25687;49.976;8.240;2022-09-09T11:33:37;99606.75;;;22.85;48.87
804;BME280;25687;49.976;8.240;2022-09-09T11:41:46;99613.28;;;22.66;51.26
804;BME280;25687;49.976;8.240;2022-09-09T11:44:16;99619.16;;;22.92;50.15
804;BME280;25687;49.976;8.240;2022-09-09T11:46:45;99610.81;;;22.88;49.50
804;BME280;25687;49.976;8.240;2022-09-09T11:49:40;99610.09;;;22.94;49.77
804;BME280;25687;49.976;8.240;2022-09-09T11:52:21;99619.94;;;23.15;46.73
804;BME280;25687;49.976;8.240;2022-09-09T11:54:48;99617.22;;;23.09;46.88
804;BME280;25687;49.976;8.240;2022-09-09T11:57:25;99614.25;;;22.65;48.78
804;BME280;25687;49.976;8.240;2022-09-09T11:59:51;99612.75;;;22.48;49.91
804;BME280;25687;49.976;8.240;2022-09-09T12:02:25;99613.06;;;22.13;51.28
804;BME280;25687;49.976;8.240;2022-09-09T12:05:20;99629.22;;;21.77;53.12
804;BME280;25687;49.976;8.240;2022-09-09T12:07:56;99633.53;;;21.12;69.70
804;BME280;25687;49.976;8.240;2022-09-09T12:10:56;99628.25;;;20.11;80.55
804;BME280;25687;49.976;8.240;2022-09-09T12:13:24;99634.41;;;19.76;84.08
804;BME280;25687;49.976;8.240;2022-09-09T12:15:53;99630.31;;;19.65;88.43
804;BME280;25687;49.976;8.240;2022-09-09T12:18:34;99634.38;;;19.67;84.11
804;BME280;25687;49.976;8.240;2022-09-09T12:21:23;99627.53;;;19.66;82.29
804;BME280;25687;49.976;8.240;2022-09-09T12:24:04;99623.91;;;19.86;81.81
804;BME280;25687;49.976;8.240;2022-09-09T12:29:33;99627.13;;;19.53;82.80
804;BME280;25687;49.976;8.240;2022-09-09T12:32:11;99635.38;;;19.22;88.96
804;BME280;25687;49.976;8.240;2022-09-09T12:34:42;99630.16;;;18.86;93.09
804;BME280;25687;49.976;8.240;2022-09-09T12:37:27;99626.84;;;18.48;100.00
804;BME280;25687;49.976;8.240;2022-09-09T12:39:59;99619.13;;;18.56;100.00
804;BME280;25687;49.976;8.240;2022-09-09T12:42:27;99615.47;;;18.49;100.00
804;BME280;25687;49.976;8.240;2022-09-09T12:44:57;99614.38;;;18.69;98.47
804;BME280;25687;49.976;8.240;2022-09-09T12:47:28;99615.97;;;18.98;94.93
804;BME280;25687;49.976;8.240;2022-09-09T12:49:55;99608.75;;;19.10;92.87
804;BME280;25687;49.976;8.240;2022-09-09T12:54:50;99616.63;;;19.71;85.34
804;BME280;25687;49.976;8.240;2022-09-09T12:57:19;99616.00;;;20.04;78.93
804;BME280;25687;49.976;8.240;2022-09-09T12:59:45;99617.19;;;20.18;77.93
804;BME280;25687;49.976;8.240;2022-09-09T13:02:26;99616.38;;;20.25;75.38
804;BME280;25687;49.976;8.240;2022-09-09T13:04:53;99596.25;;;20.60;73.12
804;BME280;25687;49.976;8.240;2022-09-09T13:07:20;99600.00;;;20.66;72.48
804;BME280;25687;49.976;8.240;2022-09-09T13:09:47;99602.81;;;20.73;70.44
804;BME280;25687;49.976;8.240;2022-09-09T13:12:19;99608.03;;;20.81;67.44
804;BME280;25687;49.976;8.240;2022-09-09T13:14:49;99600.69;;;20.93;65.67
804;BME280;25687;49.976;8.240;2022-09-09T13:17:24;99601.69;;;20.92;62.70
804;BME280;25687;49.976;8.240;2022-09-09T13:19:51;99598.75;;;20.95;60.28
804;BME280;25687;49.976;8.240;2022-09-09T13:24:59;99585.19;;;20.83;63.62
804;BME280;25687;49.976;8.240;2022-09-09T13:27:31;99581.72;;;20.58;64.49
804;BME280;25687;49.976;8.240;2022-09-09T13:29:57;99578.44;;;20.56;64.37
804;BME280;25687;49.976;8.240;2022-09-09T13:32:23;99580.88;;;20.57;62.68
804;BME280;25687;49.976;8.240;2022-09-09T13:35:01;99579.22;;;20.40;65.02
804;BME280;25687;49.976;8.240;2022-09-09T13:37:34;99593.94;;;19.98;66.06
804;BME280;25687;49.976;8.240;2022-09-09T13:40:00;99600.66;;;19.74;66.66
804;BME280;25687;49.976;8.240;2022-09-09T13:42:29;99608.59;;;19.64;70.06
804;BME280;25687;49.976;8.240;2022-09-09T13:44:56;99606.16;;;19.63;70.87
804;BME280;25687;49.976;8.240;2022-09-09T13:47:29;99609.69;;;19.54;72.74
804;BME280;25687;49.976;8.240;2022-09-09T13:49:56;99603.19;;;19.58;73.58
804;BME280;25687;49.976;8.240;2022-09-09T13:52:21;99603.94;;;19.76;73.42
804;BME280;25687;49.976;8.240;2022-09-09T13:54:48;99599.44;;;19.87;72.66
804;BME280;25687;49.976;8.240;2022-09-09T13:57:16;99597.13;;;19.57;73.28
804;BME280;25687;49.976;8.240;2022-09-09T13:59:43;99594.94;;;19.71;73.78
804;BME280;25687;49.976;8.240;2022-09-09T14:02:08;99604.34;;;19.63;74.66
804;BME280;25687;49.976;8.240;2022-09-09T14:04:34;99610.03;;;19.59;75.11
804;BME280;25687;49.976;8.240;2022-09-09T14:07:00;99605.69;;;19.41;77.16
804;BME280;25687;49.976;8.240;2022-09-09T14:09:26;99613.63;;;19.31;80.24
804;BME280;25687;49.976;8.240;2022-09-09T14:11:51;99606.84;;;19.21;83.42
804;BME280;25687;49.976;8.240;2022-09-09T14:14:16;99614.84;;;19.19;86.29
804;BME280;25687;49.976;8.240;2022-09-09T14:16:41;99616.31;;;19.22;86.61
804;BME280;25687;49.976;8.240;2022-09-09T14:19:08;99610.22;;;19.13;89.00
804;BME280;25687;49.976;8.240;2022-09-09T14:21:34;99623.66;;;19.26;90.96
804;BME280;25687;49.976;8.240;2022-09-09T14:23:59;99618.84;;;19.31;92.27
804;BME280;25687;49.976;8.240;2022-09-09T14:26:24;99613.81;;;19.38;93.05
804;BME280;25687;49.976;8.240;2022-09-09T14:28:51;99613.97;;;19.37;94.12
804;BME280;25687;49.976;8.240;2022-09-09T14:31:17;99613.09;;;19.54;93.57
804;BME280;25687;49.976;8.240;2022-09-09T14:33:44;99611.97;;;19.83;94.74
804;BME280;25687;49.976;8.240;2022-09-09T14:36:10;99608.97;;;20.04;93.80
804;BME280;25687;49.976;8.240;2022-09-09T14:38:36;99613.09;;;19.80;92.62
804;BME280;25687;49.976;8.240;2022-09-09T14:41:15;99616.22;;;19.84;91.20
804;BME280;25687;49.976;8.240;2022-09-09T14:43:45;99618.56;;;19.95;89.91
804;BME280;25687;49.976;8.240;2022-09-09T14:46:13;99610.84;;;19.86;94.39
804;BME280;25687;49.976;8.240;2022-09-09T14:48:38;99607.94;;;19.36;100.00
804;BME280;25687;49.976;8.240;2022-09-09T14:51:09;99596.44;;;19.02;100.00
804;BME280;25687;49.976;8.240;2022-09-09T14:53:35;99591.19;;;18.94;100.00
804;BME280;25687;49.976;8.240;2022-09-09T14:56:09;99591.19;;;18.94;100.00
804;BME280;25687;49.976;8.240;2022-09-09T14:58:35;99585.50;;;18.99;100.00
804;BME280;25687;49.976;8.240;2022-09-09T15:01:09;99587.88;;;19.10;100.00